createdAt,value
2022-12-01T00:03:26.286Z,101158.63
2022-12-01T00:08:29.383Z,101159.34
2022-12-01T00:13:32.198Z,101176.53
2022-12-01T00:18:34.311Z,101189.19
2022-12-01T00:23:36.567Z,101180.59
2022-12-01T00:28:39.231Z,101182.47
2022-12-01T00:33:41.369Z,101180.22
2022-12-01T00:38:43.658Z,101181.47
2022-12-01T00:43:45.721Z,101192.44
2022-12-01T00:48:48.182Z,101193.66
2022-12-01T00:53:50.364Z,101198.81
2022-12-01T00:58:52.545Z,101192.28
2022-12-01T01:03:54.643Z,101209.19
2022-12-01T01:08:56.742Z,101209.03
2022-12-01T01:13:59.611Z,101202.78
2022-12-01T01:19:01.693Z,101194.25
2022-12-01T01:24:04.000Z,101197.16
2022-12-01T01:29:07.783Z,101196.09
2022-12-01T01:34:09.876Z,101192.03
2022-12-01T01:39:12.009Z,101188.53
2022-12-01T01:44:45.323Z,101191.78
2022-12-01T01:49:48.884Z,101188.66
2022-12-01T01:54:53.921Z,101192.72
2022-12-01T02:00:02.255Z,101197.75
2022-12-01T02:05:10.951Z,101191.91
2022-12-01T02:10:14.718Z,101189.25
2022-12-01T02:15:19.849Z,101191.94
2022-12-01T02:20:59.657Z,101189.44
2022-12-01T02:26:29.701Z,101183.50
2022-12-01T02:32:05.211Z,101186.41
2022-12-01T02:37:13.118Z,101190.41
2022-12-01T02:42:40.284Z,101188.69
2022-12-01T02:47:44.841Z,101191.06
2022-12-01T02:52:47.731Z,101191.31
2022-12-01T02:57:49.801Z,101188.75
2022-12-01T03:03:26.753Z,101182.03
2022-12-01T03:08:34.603Z,101166.13
2022-12-01T03:14:11.345Z,101179.34
2022-12-01T03:19:23.098Z,101170.56
2022-12-01T03:24:29.446Z,101175.25
2022-12-01T03:29:43.491Z,101182.34
2022-12-01T03:34:59.592Z,101170.38
2022-12-01T03:40:06.392Z,101173.72
2022-12-01T03:45:16.147Z,101161.69
2022-12-01T03:50:18.970Z,101156.84
2022-12-01T03:55:24.847Z,101167.88
2022-12-01T04:00:27.098Z,101172.34
2022-12-01T04:05:29.856Z,101169.53
2022-12-01T04:10:33.102Z,101163.44
2022-12-01T04:15:35.181Z,101166.75
2022-12-01T04:20:37.318Z,101156.31
2022-12-01T04:25:39.387Z,101153.69
2022-12-01T04:30:41.459Z,101166.13
2022-12-01T04:35:43.567Z,101163.16
2022-12-01T04:40:45.649Z,101156.31
2022-12-01T04:45:48.369Z,101160.44
2022-12-01T04:50:50.540Z,101171.28
2022-12-01T04:55:52.651Z,101186.75
2022-12-01T05:00:54.933Z,101199.06
2022-12-01T05:06:09.362Z,101202.97
2022-12-01T05:11:13.389Z,101195.72
2022-12-01T05:16:22.317Z,101177.34
2022-12-01T05:21:24.501Z,101187.81
2022-12-01T05:26:26.599Z,101193.31
2022-12-01T05:31:28.877Z,101193.13
2022-12-01T05:36:31.575Z,101189.41
2022-12-01T05:41:33.670Z,101185.28
2022-12-01T05:46:35.769Z,101189.75
2022-12-01T05:51:37.851Z,101194.31
2022-12-01T05:56:39.964Z,101186.03
2022-12-01T06:01:42.141Z,101191.00
2022-12-01T06:06:44.570Z,101198.63
2022-12-01T06:11:51.220Z,101200.94
2022-12-01T06:16:54.572Z,101211.00
2022-12-01T06:22:03.698Z,101224.22
2022-12-01T06:27:06.064Z,101221.03
2022-12-01T06:32:08.207Z,101217.69
2022-12-01T06:37:11.427Z,101208.50
2022-12-01T06:42:13.596Z,101214.00
2022-12-01T06:47:16.019Z,101201.84
2022-12-01T06:52:18.175Z,101214.69
2022-12-01T06:57:20.403Z,101211.75
2022-12-01T07:02:23.169Z,101219.78
2022-12-01T07:07:25.485Z,101215.12
2022-12-01T07:12:31.607Z,101204.38
2022-12-01T07:17:34.701Z,101210.63
2022-12-01T07:22:36.797Z,101212.44
2022-12-01T07:27:38.889Z,101214.66
2022-12-01T07:32:40.998Z,101214.00
2022-12-01T07:37:43.089Z,101218.50
2022-12-01T07:42:45.205Z,101216.34
2022-12-01T07:47:47.298Z,101216.59
2022-12-01T07:52:50.927Z,101226.13
2022-12-01T07:57:53.683Z,101217.00
2022-12-01T08:02:55.797Z,101212.31
2022-12-01T08:07:57.916Z,101219.66
2022-12-01T08:13:00.147Z,101227.22
2022-12-01T08:18:02.503Z,101227.53
2022-12-01T08:23:04.938Z,101230.37
2022-12-01T08:28:07.143Z,101218.78
2022-12-01T08:33:09.241Z,101215.25
2022-12-01T08:38:12.242Z,101222.00
2022-12-01T08:43:34.796Z,101229.94
2022-12-01T08:48:36.865Z,101232.28
2022-12-01T08:53:45.524Z,101224.75
2022-12-01T08:58:48.057Z,101221.19
2022-12-01T09:04:05.647Z,101230.16
2022-12-01T09:09:12.561Z,101228.84
2022-12-01T09:14:16.927Z,101225.47
2022-12-01T09:19:23.956Z,101221.62
2022-12-01T09:24:26.650Z,101204.78
2022-12-01T09:29:29.355Z,101210.03
2022-12-01T09:34:31.552Z,101201.81
2022-12-01T09:39:33.734Z,101188.81
2022-12-01T09:44:44.044Z,101185.28
2022-12-01T09:50:06.961Z,101195.84
2022-12-01T09:55:13.744Z,101198.81
2022-12-01T10:00:21.131Z,101177.78
2022-12-01T10:05:26.858Z,101173.72
2022-12-01T10:10:34.547Z,101161.47
2022-12-01T10:16:08.835Z,101161.53
2022-12-01T10:21:40.155Z,101153.44
2022-12-01T10:27:04.105Z,101163.28
2022-12-01T10:32:20.563Z,101141.69
2022-12-01T10:37:26.380Z,101139.25
2022-12-01T10:42:36.862Z,101134.06
2022-12-01T10:48:15.915Z,101132.63
2022-12-01T10:53:28.288Z,101121.16
2022-12-01T10:58:33.857Z,101116.44
2022-12-01T11:03:36.942Z,101115.72
2022-12-01T11:08:40.668Z,101106.41
2022-12-01T11:13:43.375Z,101102.44
2022-12-01T11:18:45.514Z,101094.87
2022-12-01T11:23:50.568Z,101091.31
2022-12-01T11:29:04.742Z,101085.69
2022-12-01T11:34:20.652Z,101078.25
2022-12-01T11:39:25.510Z,101078.84
2022-12-01T11:44:50.356Z,101078.16
2022-12-01T11:50:00.076Z,101082.47
2022-12-01T11:55:11.166Z,101068.50
2022-12-01T12:00:13.860Z,101068.38
2022-12-01T12:05:40.374Z,101070.91
2022-12-01T12:11:19.452Z,101071.28
2022-12-01T12:16:56.752Z,101065.41
2022-12-01T12:22:10.962Z,101067.84
2022-12-01T12:27:34.886Z,101067.16
2022-12-01T12:33:04.309Z,101054.94
2022-12-01T12:38:15.457Z,101055.59
2022-12-01T12:43:56.668Z,101047.31
2022-12-01T12:49:25.668Z,101053.91
2022-12-01T12:54:33.809Z,101063.44
2022-12-01T12:59:52.009Z,101070.38
2022-12-01T13:05:16.857Z,101065.28
2022-12-01T13:10:35.740Z,101060.50
2022-12-01T13:15:39.093Z,101053.50
2022-12-01T13:20:41.727Z,101043.94
2022-12-01T13:25:47.842Z,101044.53
2022-12-01T13:31:18.184Z,101050.94
2022-12-01T13:36:45.721Z,101047.53
2022-12-01T13:41:45.468Z,101055.03
2022-12-01T13:46:47.613Z,101049.81
2022-12-01T13:52:21.077Z,101052.72
2022-12-01T13:57:27.805Z,101060.09
2022-12-01T14:02:33.141Z,101052.38
2022-12-01T14:07:38.321Z,101058.75
2022-12-01T14:12:46.020Z,101058.28
2022-12-01T14:17:58.391Z,101051.38
2022-12-01T14:23:36.223Z,101051.31
2022-12-01T14:29:01.491Z,101041.09
2022-12-01T14:34:13.155Z,101047.94
2022-12-01T14:39:35.174Z,101049.25
2022-12-01T14:44:49.797Z,101058.13
2022-12-01T14:50:11.897Z,101057.50
2022-12-01T14:55:21.151Z,101050.94
2022-12-01T15:00:25.116Z,101055.38
2022-12-01T15:05:29.557Z,101054.97
2022-12-01T15:10:37.191Z,101064.84
2022-12-01T15:15:53.432Z,101065.94
2022-12-01T15:21:03.940Z,101055.47
2022-12-01T15:26:06.989Z,101063.97
2022-12-01T15:31:13.092Z,101062.81
2022-12-01T15:36:15.766Z,101061.72
2022-12-01T15:41:30.663Z,101061.50
2022-12-01T15:46:36.970Z,101061.16
2022-12-01T15:51:39.084Z,101057.25
2022-12-01T15:56:41.461Z,101063.87
2022-12-01T16:01:44.665Z,101062.25
2022-12-01T16:07:16.038Z,101069.44
2022-12-01T16:12:18.063Z,101065.72
2022-12-01T16:17:20.835Z,101072.13
2022-12-01T16:22:23.139Z,101070.28
2022-12-01T16:27:30.385Z,101070.81
2022-12-01T16:32:35.155Z,101075.06
2022-12-01T16:37:37.253Z,101069.81
2022-12-01T16:42:39.733Z,101070.87
2022-12-01T16:47:42.719Z,101061.94
2022-12-01T16:52:45.892Z,101075.75
2022-12-01T16:57:48.296Z,101066.59
2022-12-01T17:02:51.016Z,101076.22
2022-12-01T17:07:53.466Z,101076.66
2022-12-01T17:12:55.612Z,101084.69
2022-12-01T17:17:57.736Z,101079.88
2022-12-01T17:22:59.885Z,101080.16
2022-12-01T17:28:02.027Z,101083.47
2022-12-01T17:33:04.305Z,101082.91
2022-12-01T17:38:06.860Z,101097.19
2022-12-01T17:43:09.333Z,101093.22
2022-12-01T17:48:11.425Z,101097.03
2022-12-01T17:53:13.574Z,101097.50
2022-12-01T17:58:18.215Z,101095.06
2022-12-01T18:03:21.407Z,101094.66
2022-12-01T18:08:25.552Z,101090.34
2022-12-01T18:13:27.969Z,101105.56
2022-12-01T18:18:30.133Z,101104.75
2022-12-01T18:23:32.378Z,101108.53
2022-12-01T18:28:35.136Z,101103.09
2022-12-01T18:33:40.242Z,101098.72
2022-12-01T18:38:42.328Z,101092.44
2022-12-01T18:43:45.102Z,101105.00
2022-12-01T18:48:49.457Z,101099.34
2022-12-01T18:53:54.614Z,101104.50
2022-12-01T18:58:58.760Z,101105.34
2022-12-01T19:04:02.066Z,101102.03
2022-12-01T19:09:06.301Z,101112.09
2022-12-01T19:14:16.425Z,101102.25
2022-12-01T19:19:18.776Z,101111.09
2022-12-01T19:24:20.999Z,101116.13
2022-12-01T19:29:23.262Z,101117.56
2022-12-01T19:34:26.072Z,101116.50
2022-12-01T19:39:28.428Z,101120.72
2022-12-01T19:44:31.837Z,101113.94
2022-12-01T19:49:36.547Z,101108.94
2022-12-01T19:54:39.292Z,101118.81
2022-12-01T19:59:41.536Z,101121.72
2022-12-01T20:04:43.773Z,101115.22
2022-12-01T20:09:49.910Z,101117.94
2022-12-01T20:14:52.716Z,101118.56
2022-12-01T20:19:55.203Z,101128.13
2022-12-01T20:24:57.344Z,101118.94
2022-12-01T20:29:59.857Z,101123.66
2022-12-01T20:35:02.055Z,101123.34
2022-12-01T20:40:04.665Z,101132.09
2022-12-01T20:45:07.527Z,101135.16
2022-12-01T20:50:10.269Z,101130.09
2022-12-01T20:55:12.388Z,101144.19
2022-12-01T21:00:15.067Z,101153.91
2022-12-01T21:05:17.231Z,101142.56
2022-12-01T21:10:20.358Z,101155.50
2022-12-01T21:15:31.411Z,101151.69
2022-12-01T21:20:39.312Z,101156.63
2022-12-01T21:25:42.610Z,101160.62
2022-12-01T21:30:46.334Z,101169.84
2022-12-01T21:35:51.761Z,101158.38
2022-12-01T21:40:54.250Z,101173.06
2022-12-01T21:46:00.718Z,101177.16
2022-12-01T21:51:12.178Z,101174.56
2022-12-01T21:56:34.521Z,101162.72
2022-12-01T22:01:36.837Z,101174.12
2022-12-01T22:06:43.250Z,101181.12
2022-12-01T22:11:49.371Z,101178.53
2022-12-01T22:17:09.134Z,101174.88
2022-12-01T22:22:11.688Z,101177.28
2022-12-01T22:27:39.276Z,101175.00
2022-12-01T22:32:56.193Z,101179.72
2022-12-01T22:37:59.828Z,101158.72
2022-12-01T22:43:17.274Z,101157.84
2022-12-01T22:48:22.263Z,101154.41
2022-12-01T22:53:31.317Z,101160.28
2022-12-01T22:58:39.838Z,101151.59
2022-12-01T23:03:41.919Z,101146.88
2022-12-01T23:08:44.017Z,101142.91
2022-12-01T23:13:46.091Z,101141.03
2022-12-01T23:18:48.139Z,101153.38
2022-12-01T23:23:50.259Z,101152.13
2022-12-01T23:28:52.339Z,101144.84
2022-12-01T23:33:54.488Z,101141.31
2022-12-01T23:39:01.446Z,101150.94
2022-12-01T23:44:40.731Z,101156.56
2022-12-01T23:49:44.785Z,101159.72
2022-12-01T23:54:47.403Z,101160.75
2022-12-01T23:59:56.298Z,101170.78
